Time;durP1;ratioP1;P1;durP2;ratioP2;P2;SDS_P1;SDS_P2;PMS_P1;PMS_P2;Temp;Humidity;BMP_temperature;BMP_pressure;BME280_temperature;BME280_humidity;BME280_pressure;Samples;Min_cycle;Max_cycle;Signal;HPM_P1;HPM_P2
2021/09/29 00:00:29;;;;;;;4.72;2.67;;;;;;;;;;5055336;28;20013;-41
2021/09/29 00:02:54;;;;;;;8.25;3.03;;;;;;;;;;5055565;28;20074;-42
2021/09/29 00:05:20;;;;;;;4.85;2.95;;;;;;;;;;5070745;28;20353;-41
2021/09/29 00:07:45;;;;;;;5.60;3.00;;;;;;;;;;5055541;28;20029;-41
2021/09/29 00:10:11;;;;;;;7.25;3.03;;;;;;;;;;5054962;28;20506;-41
2021/09/29 00:12:36;;;;;;;6.65;2.72;;;;;;;;;;5055052;28;20395;-41
2021/09/29 00:15:09;;;;;;;6.18;2.55;;;;;;;;;;5055129;28;20033;-41
2021/09/29 00:17:34;;;;;;;3.97;2.47;;;;;;;;;;5055410;28;20025;-41
2021/09/29 00:20:00;;;;;;;3.60;2.40;;;;;;;;;;5055307;28;20482;-41
2021/09/29 00:22:25;;;;;;;5.75;2.70;;;;;;;;;;5055126;28;20025;-42
2021/09/29 00:24:50;;;;;;;2.75;2.28;;;;;;;;;;5070506;28;20090;-42
2021/09/29 00:27:16;;;;;;;6.72;2.47;;;;;;;;;;5054817;28;20036;-41
2021/09/29 00:29:41;;;;;;;8.30;3.33;;;;;;;;;;5053626;28;20108;-41
2021/09/29 00:32:07;;;;;;;4.45;2.63;;;;;;;;;;5054766;28;20033;-42
2021/09/29 00:34:35;;;;;;;2.47;2.20;;;;;;;;;;5054679;28;20032;-41
2021/09/29 00:37:01;;;;;;;2.97;2.25;;;;;;;;;;5054795;28;20352;-41
2021/09/29 00:39:27;;;;;;;8.68;3.08;;;;;;;;;;5054708;28;20071;-41
2021/09/29 00:41:52;;;;;;;4.20;2.65;;;;;;;;;;5054454;28;20519;-42
2021/09/29 00:44:18;;;;;;;3.80;2.58;;;;;;;;;;5054672;28;20113;-42
2021/09/29 00:46:44;;;;;;;10.70;2.95;;;;;;;;;;5054650;28;20028;-41
2021/09/29 00:49:09;;;;;;;4.18;3.10;;;;;;;;;;5054358;28;20379;-41
2021/09/29 00:51:36;;;;;;;7.20;3.15;;;;;;;;;;5054751;28;20021;-41
2021/09/29 00:54:02;;;;;;;3.30;2.28;;;;;;;;;;5054545;28;20043;-41
2021/09/29 00:56:27;;;;;;;4.57;2.28;;;;;;;;;;5054260;28;20028;-42
2021/09/29 00:58:53;;;;;;;7.28;2.55;;;;;;;;;;5054594;28;20043;-41
2021/09/29 01:01:18;;;;;;;4.72;2.58;;;;;;;;;;5054472;28;20029;-41
2021/09/29 01:03:45;;;;;;;6.82;2.55;;;;;;;;;;5052931;28;20107;-41
2021/09/29 01:06:15;;;;;;;4.50;2.53;;;;;;;;;;5054047;28;20071;-41
2021/09/29 01:08:44;;;;;;;4.03;2.40;;;;;;;;;;5054064;28;20055;-41
2021/09/29 01:11:25;;;;;;;3.47;2.35;;;;;;;;;;5053931;28;20041;-41
2021/09/29 01:13:56;;;;;;;6.93;3.08;;;;;;;;;;5053952;28;20037;-41
2021/09/29 01:16:22;;;;;;;7.72;2.53;;;;;;;;;;5069687;28;20025;-41
2021/09/29 01:18:51;;;;;;;3.10;2.53;;;;;;;;;;5053985;28;20100;-42
2021/09/29 01:21:18;;;;;;;4.10;2.75;;;;;;;;;;5053866;28;20464;-42
2021/09/29 01:23:55;;;;;;;3.17;2.30;;;;;;;;;;5054106;28;20013;-42
2021/09/29 01:26:21;;;;;;;7.82;3.35;;;;;;;;;;5053934;28;20029;-42
2021/09/29 01:28:58;;;;;;;6.80;2.95;;;;;;;;;;5052567;28;20520;-42
2021/09/29 01:31:24;;;;;;;3.53;2.45;;;;;;;;;;5053631;28;20460;-42
2021/09/29 01:33:50;;;;;;;6.00;2.42;;;;;;;;;;5053480;28;20475;-42
2021/09/29 01:36:17;;;;;;;6.45;3.13;;;;;;;;;;5053544;28;20515;-41
2021/09/29 01:38:43;;;;;;;3.92;2.40;;;;;;;;;;5053454;28;20017;-42
2021/09/29 01:41:08;;;;;;;4.20;2.40;;;;;;;;;;5053739;28;20036;-41
2021/09/29 01:43:34;;;;;;;4.25;2.20;;;;;;;;;;5053729;28;20435;-42
2021/09/29 01:46:00;;;;;;;3.63;2.85;;;;;;;;;;5053253;28;20033;-41
2021/09/29 01:48:26;;;;;;;6.45;2.50;;;;;;;;;;5053590;28;20020;-41
2021/09/29 01:50:53;;;;;;;5.95;2.35;;;;;;;;;;5053541;28;20393;-41
2021/09/29 01:53:19;;;;;;;4.88;2.83;;;;;;;;;;5052497;28;20427;-41
2021/09/29 01:55:45;;;;;;;2.85;2.00;;;;;;;;;;5053513;28;20052;-42
2021/09/29 01:58:10;;;;;;;3.72;2.30;;;;;;;;;;5053415;28;20028;-41
2021/09/29 02:00:37;;;;;;;9.35;3.30;;;;;;;;;;5053150;28;20033;-42
2021/09/29 02:03:02;;;;;;;4.28;2.53;;;;;;;;;;5053016;28;20017;-41
2021/09/29 02:05:30;;;;;;;3.72;2.47;;;;;;;;;;5053032;28;20486;-41
2021/09/29 02:07:56;;;;;;;16.08;2.70;;;;;;;;;;5053033;28;20043;-42
2021/09/29 02:10:21;;;;;;;5.10;2.83;;;;;;;;;;5051481;28;20055;-42
2021/09/29 02:12:47;;;;;;;4.57;3.53;;;;;;;;;;5051583;28;20052;-42
2021/09/29 02:15:12;;;;;;;3.08;2.13;;;;;;;;;;5052992;28;20052;-41
2021/09/29 02:17:38;;;;;;;5.97;3.30;;;;;;;;;;5053136;28;20017;-41
2021/09/29 02:20:03;;;;;;;3.28;2.22;;;;;;;;;;5052952;28;20135;-41
2021/09/29 02:22:29;;;;;;;3.30;2.55;;;;;;;;;;5052527;28;20042;-41
2021/09/29 02:24:54;;;;;;;5.63;2.55;;;;;;;;;;5052732;28;20064;-42
2021/09/29 02:27:20;;;;;;;8.05;2.30;;;;;;;;;;5052815;28;20029;-42
2021/09/29 02:29:45;;;;;;;4.78;2.67;;;;;;;;;;5052937;28;20463;-41
2021/09/29 02:32:11;;;;;;;7.82;3.08;;;;;;;;;;5052507;28;20094;-41
2021/09/29 02:34:36;;;;;;;3.58;2.40;;;;;;;;;;5052472;28;20041;-41
2021/09/29 02:37:02;;;;;;;3.85;2.72;;;;;;;;;;5052855;28;20091;-41
2021/09/29 02:39:27;;;;;;;7.05;2.88;;;;;;;;;;5052795;28;20455;-41
2021/09/29 02:41:52;;;;;;;5.13;2.85;;;;;;;;;;5052423;28;20384;-41
2021/09/29 02:44:18;;;;;;;3.58;2.75;;;;;;;;;;5052465;28;20029;-41
2021/09/29 02:46:43;;;;;;;4.30;2.80;;;;;;;;;;5052442;28;20017;-42
2021/09/29 02:49:09;;;;;;;4.07;2.55;;;;;;;;;;5052401;28;20032;-41
2021/09/29 02:51:35;;;;;;;5.07;2.83;;;;;;;;;;5052467;28;20017;-41
2021/09/29 02:54:01;;;;;;;4.20;2.83;;;;;;;;;;5052526;28;20492;-42
2021/09/29 02:56:26;;;;;;;4.65;2.65;;;;;;;;;;5052221;28;20025;-41
2021/09/29 02:58:52;;;;;;;4.05;2.80;;;;;;;;;;5052347;28;20029;-41
2021/09/29 03:01:18;;;;;;;4.53;2.53;;;;;;;;;;5052500;28;20463;-41
2021/09/29 03:03:43;;;;;;;6.35;2.08;;;;;;;;;;5052255;28;20037;-41
2021/09/29 03:06:09;;;;;;;4.47;2.38;;;;;;;;;;5055805;28;20024;-41
2021/09/29 03:08:34;;;;;;;4.97;2.72;;;;;;;;;;5056489;28;20438;-41
2021/09/29 03:11:00;;;;;;;5.57;2.60;;;;;;;;;;5056168;28;20458;-42
2021/09/29 03:13:25;;;;;;;5.95;2.50;;;;;;;;;;5056024;28;20059;-41
2021/09/29 03:15:50;;;;;;;8.43;2.78;;;;;;;;;;5056314;28;20096;-41
2021/09/29 03:18:17;;;;;;;4.32;2.72;;;;;;;;;;5055995;28;20119;-41
2021/09/29 03:20:43;;;;;;;3.35;2.50;;;;;;;;;;5056526;28;20028;-42
2021/09/29 03:23:09;;;;;;;4.35;2.40;;;;;;;;;;5056389;28;20021;-41
2021/09/29 03:25:34;;;;;;;3.15;2.05;;;;;;;;;;5055990;28;20031;-41
2021/09/29 03:27:59;;;;;;;3.10;2.40;;;;;;;;;;5056340;28;20017;-41
2021/09/29 03:30:25;;;;;;;7.00;2.17;;;;;;;;;;5055887;28;20472;-41
2021/09/29 03:32:50;;;;;;;5.10;3.17;;;;;;;;;;5056064;28;20047;-41
2021/09/29 03:35:16;;;;;;;5.82;2.25;;;;;;;;;;5071439;28;20028;-41
2021/09/29 03:37:43;;;;;;;3.83;2.40;;;;;;;;;;5054667;28;20057;-41
2021/09/29 03:40:09;;;;;;;3.47;2.30;;;;;;;;;;5055780;28;20036;-42
2021/09/29 03:42:35;;;;;;;3.58;2.60;;;;;;;;;;5071135;28;20041;-41
2021/09/29 03:45:00;;;;;;;5.72;2.58;;;;;;;;;;5071437;28;20071;-41
2021/09/29 03:47:26;;;;;;;5.28;2.78;;;;;;;;;;5055886;28;20033;-41
2021/09/29 03:49:51;;;;;;;3.13;2.30;;;;;;;;;;5055610;28;20025;-41
2021/09/29 03:52:17;;;;;;;3.05;2.28;;;;;;;;;;5055736;28;20028;-41
2021/09/29 03:54:42;;;;;;;6.97;2.97;;;;;;;;;;5055482;28;20028;-41
2021/09/29 03:57:07;;;;;;;8.25;3.08;;;;;;;;;;5055736;28;20106;-41
2021/09/29 03:59:33;;;;;;;7.13;3.13;;;;;;;;;;5055489;28;20016;-41
2021/09/29 04:01:58;;;;;;;4.18;2.20;;;;;;;;;;5055310;28;20379;-41
2021/09/29 04:04:24;;;;;;;3.40;2.40;;;;;;;;;;5055272;28;20025;-41
2021/09/29 04:06:49;;;;;;;5.07;2.40;;;;;;;;;;5055342;28;20086;-41
2021/09/29 04:09:15;;;;;;;5.97;2.58;;;;;;;;;;5070615;28;20028;-41
2021/09/29 04:11:40;;;;;;;3.45;2.58;;;;;;;;;;5055211;28;20515;-42
2021/09/29 04:14:06;;;;;;;9.40;2.55;;;;;;;;;;5055370;28;20076;-41
2021/09/29 04:16:32;;;;;;;7.22;3.10;;;;;;;;;;5054894;28;20029;-41
2021/09/29 04:18:57;;;;;;;5.20;2.22;;;;;;;;;;5055395;28;20434;-41
2021/09/29 04:21:23;;;;;;;8.35;2.40;;;;;;;;;;5054900;28;20190;-41
2021/09/29 04:23:48;;;;;;;5.57;2.63;;;;;;;;;;5055278;28;20032;-41
2021/09/29 04:26:14;;;;;;;3.90;2.70;;;;;;;;;;5054992;28;20526;-42
2021/09/29 04:28:39;;;;;;;4.15;2.97;;;;;;;;;;5055149;28;20032;-42
2021/09/29 04:31:05;;;;;;;5.47;2.45;;;;;;;;;;5055179;28;20025;-41
2021/09/29 04:33:30;;;;;;;5.57;2.05;;;;;;;;;;5054883;28;20447;-42
2021/09/29 04:35:56;;;;;;;5.32;2.45;;;;;;;;;;5055031;28;20025;-41
2021/09/29 04:38:22;;;;;;;2.85;2.40;;;;;;;;;;5054697;28;20017;-41
2021/09/29 04:40:47;;;;;;;3.75;2.40;;;;;;;;;;5055000;28;20033;-41
2021/09/29 04:43:13;;;;;;;3.95;2.22;;;;;;;;;;5054713;28;20053;-41
2021/09/29 04:45:39;;;;;;;3.65;2.97;;;;;;;;;;5054572;28;20021;-41
2021/09/29 04:48:05;;;;;;;5.53;2.53;;;;;;;;;;5054885;28;20025;-41
2021/09/29 04:50:31;;;;;;;3.90;2.40;;;;;;;;;;5054691;28;20024;-41
2021/09/29 04:52:57;;;;;;;7.63;2.63;;;;;;;;;;5054314;28;20021;-42
2021/09/29 04:55:22;;;;;;;3.28;2.95;;;;;;;;;;5054410;28;20082;-42
2021/09/29 04:57:48;;;;;;;7.90;2.72;;;;;;;;;;5054427;28;20013;-42
2021/09/29 05:00:14;;;;;;;3.55;2.50;;;;;;;;;;5054325;28;20167;-41
2021/09/29 05:02:43;;;;;;;4.15;2.55;;;;;;;;;;5054235;28;20028;-41
2021/09/29 05:05:08;;;;;;;4.20;2.70;;;;;;;;;;5054466;28;20384;-41
2021/09/29 05:07:34;;;;;;;3.78;2.22;;;;;;;;;;5054212;28;20035;-40
2021/09/29 05:10:00;;;;;;;3.72;2.25;;;;;;;;;;5054137;28;20045;-41
2021/09/29 05:12:29;;;;;;;2.67;2.45;;;;;;;;;;5053869;28;20036;-41
2021/09/29 05:14:55;;;;;;;5.55;2.30;;;;;;;;;;5054021;28;20036;-41
2021/09/29 05:17:20;;;;;;;9.60;2.72;;;;;;;;;;5053961;28;20013;-41
2021/09/29 05:19:46;;;;;;;5.93;3.05;;;;;;;;;;5053988;28;20033;-41
2021/09/29 05:22:12;;;;;;;2.85;2.00;;;;;;;;;;5054069;28;20375;-41
2021/09/29 05:24:37;;;;;;;7.80;2.47;;;;;;;;;;5053934;28;20029;-41
2021/09/29 05:27:03;;;;;;;6.05;2.58;;;;;;;;;;5052956;28;20017;-41
2021/09/29 05:29:29;;;;;;;7.80;3.10;;;;;;;;;;5053907;28;20029;-41
2021/09/29 05:31:55;;;;;;;3.17;2.30;;;;;;;;;;5053767;28;20025;-41
2021/09/29 05:34:24;;;;;;;4.13;2.28;;;;;;;;;;5053539;28;20622;-41
2021/09/29 05:36:49;;;;;;;4.05;2.63;;;;;;;;;;5053552;28;20468;-41
2021/09/29 05:39:15;;;;;;;5.45;2.53;;;;;;;;;;5053431;28;20040;-42
2021/09/29 05:41:40;;;;;;;4.22;2.50;;;;;;;;;;5053457;28;20025;-41
2021/09/29 05:44:06;;;;;;;5.38;2.50;;;;;;;;;;5053798;28;20036;-41
2021/09/29 05:46:31;;;;;;;6.40;2.35;;;;;;;;;;5053462;28;20028;-41
2021/09/29 05:48:57;;;;;;;5.65;3.05;;;;;;;;;;5053580;28;20033;-41
2021/09/29 05:51:22;;;;;;;7.13;2.50;;;;;;;;;;5051999;28;20013;-41
2021/09/29 05:53:48;;;;;;;3.38;2.58;;;;;;;;;;5053457;28;20033;-41
2021/09/29 05:56:14;;;;;;;4.43;2.85;;;;;;;;;;5053457;28;20092;-41
2021/09/29 05:58:40;;;;;;;3.17;2.35;;;;;;;;;;5053520;28;20365;-41
2021/09/29 06:01:06;;;;;;;4.13;2.78;;;;;;;;;;5053030;28;20021;-41
2021/09/29 06:03:32;;;;;;;2.50;2.30;;;;;;;;;;5052928;28;20059;-42
2021/09/29 06:05:57;;;;;;;3.47;2.53;;;;;;;;;;5053135;28;20021;-41
2021/09/29 06:08:23;;;;;;;5.97;2.80;;;;;;;;;;5052961;28;20021;-41
2021/09/29 06:10:48;;;;;;;4.30;2.78;;;;;;;;;;5052821;28;20056;-41
2021/09/29 06:13:15;;;;;;;3.80;2.88;;;;;;;;;;5052739;28;20029;-41
2021/09/29 06:15:45;;;;;;;4.68;2.50;;;;;;;;;;5053133;28;20454;-41
2021/09/29 06:18:14;;;;;;;3.38;2.60;;;;;;;;;;5053166;28;20417;-41
2021/09/29 06:20:46;;;;;;;3.38;2.10;;;;;;;;;;5053173;28;20033;-41
2021/09/29 06:23:12;;;;;;;4.50;2.50;;;;;;;;;;5052742;28;20082;-41
2021/09/29 06:25:37;;;;;;;4.47;2.50;;;;;;;;;;5052732;28;20379;-42
2021/09/29 06:28:03;;;;;;;4.07;2.60;;;;;;;;;;5052704;28;20025;-41
2021/09/29 06:30:28;;;;;;;3.03;2.47;;;;;;;;;;5052819;28;20024;-42
2021/09/29 06:32:53;;;;;;;3.25;2.50;;;;;;;;;;5052547;28;20111;-42
2021/09/29 06:35:19;;;;;;;6.53;2.72;;;;;;;;;;5052826;28;20029;-42
2021/09/29 06:37:45;;;;;;;3.15;2.47;;;;;;;;;;5052489;28;20116;-41
2021/09/29 06:40:15;;;;;;;2.42;2.13;;;;;;;;;;5052434;28;20079;-41
2021/09/29 06:42:40;;;;;;;7.28;2.30;;;;;;;;;;5052423;28;20480;-42
2021/09/29 06:45:06;;;;;;;7.38;2.65;;;;;;;;;;5052470;28;20136;-41
2021/09/29 06:47:32;;;;;;;7.18;2.83;;;;;;;;;;5052390;28;20033;-41
2021/09/29 06:49:57;;;;;;;3.88;2.28;;;;;;;;;;5052392;28;20066;-42
2021/09/29 06:52:23;;;;;;;4.53;2.10;;;;;;;;;;5052210;28;20388;-41
2021/09/29 06:54:48;;;;;;;6.47;2.25;;;;;;;;;;5052340;28;20025;-41
2021/09/29 06:57:14;;;;;;;3.90;2.50;;;;;;;;;;5052326;28;20392;-41
2021/09/29 06:59:40;;;;;;;3.75;1.85;;;;;;;;;;5052333;28;20017;-41
2021/09/29 07:02:05;;;;;;;4.20;2.25;;;;;;;;;;5052296;28;20029;-41
2021/09/29 07:04:30;;;;;;;2.53;2.00;;;;;;;;;;5052179;28;20013;-42
2021/09/29 07:06:56;;;;;;;7.68;2.35;;;;;;;;;;5052203;28;20037;-41
2021/09/29 07:09:22;;;;;;;3.08;2.20;;;;;;;;;;5052008;28;20072;-41
2021/09/29 07:11:47;;;;;;;3.50;2.25;;;;;;;;;;5052509;28;20068;-41
2021/09/29 07:14:13;;;;;;;5.60;2.50;;;;;;;;;;5052245;28;20456;-41
2021/09/29 07:16:39;;;;;;;3.20;2.63;;;;;;;;;;5052134;28;20031;-41
2021/09/29 07:19:04;;;;;;;4.43;2.65;;;;;;;;;;5052463;28;20107;-41
2021/09/29 07:21:30;;;;;;;5.05;2.45;;;;;;;;;;5051972;28;20430;-42
2021/09/29 07:23:56;;;;;;;7.20;2.42;;;;;;;;;;5052203;28;20029;-41
2021/09/29 07:26:22;;;;;;;4.82;2.63;;;;;;;;;;5052268;28;20025;-41
2021/09/29 07:28:48;;;;;;;3.95;2.42;;;;;;;;;;5050809;28;20032;-42
2021/09/29 07:31:14;;;;;;;3.58;2.30;;;;;;;;;;5052266;28;20383;-41
2021/09/29 07:33:40;;;;;;;7.65;2.55;;;;;;;;;;5051918;28;20017;-41
2021/09/29 07:36:06;;;;;;;4.82;3.13;;;;;;;;;;5051998;28;20120;-41
2021/09/29 07:38:32;;;;;;;4.70;2.50;;;;;;;;;;5051885;28;20013;-41
2021/09/29 07:40:57;;;;;;;6.93;2.38;;;;;;;;;;5051909;28;20128;-41
2021/09/29 07:43:23;;;;;;;5.95;2.72;;;;;;;;;;5051888;28;20017;-41
2021/09/29 07:45:49;;;;;;;3.17;2.38;;;;;;;;;;5051960;28;20521;-42
2021/09/29 07:48:14;;;;;;;3.25;2.80;;;;;;;;;;5051736;28;20032;-41
2021/09/29 07:50:40;;;;;;;3.97;2.30;;;;;;;;;;5052802;28;20029;-41
2021/09/29 07:53:05;;;;;;;4.00;2.95;;;;;;;;;;5055710;28;20057;-41
2021/09/29 07:55:31;;;;;;;2.55;1.95;;;;;;;;;;5055574;28;20032;-41
2021/09/29 07:57:56;;;;;;;4.50;2.47;;;;;;;;;;5055775;28;20017;-42
2021/09/29 08:00:22;;;;;;;2.97;2.28;;;;;;;;;;5055512;28;20384;-41
2021/09/29 08:02:48;;;;;;;3.33;2.67;;;;;;;;;;5055335;28;20028;-41
2021/09/29 08:05:15;;;;;;;4.13;2.25;;;;;;;;;;5055286;28;20116;-42
2021/09/29 08:07:40;;;;;;;3.45;2.30;;;;;;;;;;5055371;28;20017;-41
2021/09/29 08:10:07;;;;;;;4.78;2.78;;;;;;;;;;5055167;28;20055;-41
2021/09/29 08:12:33;;;;;;;4.38;2.78;;;;;;;;;;5055243;28;20104;-41
2021/09/29 08:14:59;;;;;;;4.50;2.30;;;;;;;;;;5055169;28;20045;-41
2021/09/29 08:17:24;;;;;;;3.72;2.80;;;;;;;;;;5055005;28;20102;-41
2021/09/29 08:19:50;;;;;;;5.95;3.03;;;;;;;;;;5055343;28;20102;-41
2021/09/29 08:22:15;;;;;;;3.75;2.45;;;;;;;;;;5054992;28;20017;-42
2021/09/29 08:44:56;;;;;;;4.18;3.10;;;;;;;;;;5070009;28;20021;-42
2021/09/29 08:47:33;;;;;;;4.10;2.67;;;;;;;;;;5054632;28;20057;-42
2021/09/29 08:51:09;;;;;;;4.50;2.90;;;;;;;;;;5054986;28;20456;-42
2021/09/29 09:17:28;;;;;;;4.03;3.10;;;;;;;;;;5054211;28;20025;-41
2021/09/29 09:19:54;;;;;;;5.60;3.10;;;;;;;;;;5054038;28;20029;-41
2021/09/29 09:22:30;;;;;;;8.98;4.10;;;;;;;;;;5053774;28;20044;-41
2021/09/29 09:24:56;;;;;;;4.90;3.03;;;;;;;;;;5054044;28;20044;-41
2021/09/29 09:27:21;;;;;;;5.28;2.63;;;;;;;;;;5054018;28;20029;-41
2021/09/29 09:29:47;;;;;;;3.58;2.35;;;;;;;;;;5053833;28;20082;-41
2021/09/29 09:32:14;;;;;;;3.78;2.25;;;;;;;;;;5053852;28;20074;-41
2021/09/29 09:34:39;;;;;;;4.03;2.55;;;;;;;;;;5053435;28;20526;-41
2021/09/29 09:37:11;;;;;;;3.50;2.83;;;;;;;;;;5053702;28;20108;-41
2021/09/29 09:39:37;;;;;;;3.40;2.67;;;;;;;;;;5053502;28;20044;-41
2021/09/29 09:42:03;;;;;;;7.55;3.20;;;;;;;;;;5053529;28;20418;-41
2021/09/29 09:44:34;;;;;;;5.38;3.72;;;;;;;;;;5053517;28;20025;-41
2021/09/29 09:47:11;;;;;;;9.35;3.28;;;;;;;;;;5053469;28;20025;-41
2021/09/29 09:49:53;;;;;;;3.38;2.33;;;;;;;;;;5053345;28;20091;-41
2021/09/29 09:52:33;;;;;;;3.42;2.72;;;;;;;;;;5053289;28;20422;-41
2021/09/29 09:55:09;;;;;;;3.58;2.97;;;;;;;;;;5053527;28;20037;-41
2021/09/29 09:57:36;;;;;;;7.22;3.30;;;;;;;;;;5053224;28;20478;-41
2021/09/29 10:00:05;;;;;;;5.10;2.70;;;;;;;;;;5053272;28;20078;-42
2021/09/29 10:02:38;;;;;;;3.80;3.22;;;;;;;;;;5053133;28;20033;-41
2021/09/29 10:05:04;;;;;;;5.35;3.42;;;;;;;;;;5053094;28;20025;-41
2021/09/29 10:07:30;;;;;;;4.63;2.85;;;;;;;;;;5053126;28;20028;-42
2021/09/29 10:10:03;;;;;;;5.55;3.33;;;;;;;;;;5051840;28;20079;-42
2021/09/29 10:23:39;;;;;;;5.88;3.28;;;;;;;;;;5052748;28;20052;-41
2021/09/29 10:28:40;;;;;;;8.70;3.35;;;;;;;;;;5052630;28;20059;-41
2021/09/29 10:33:40;;;;;;;6.78;3.50;;;;;;;;;;5052502;28;20025;-41
2021/09/29 10:41:06;;;;;;;6.50;3.25;;;;;;;;;;5052418;28;20024;-50
2021/09/29 10:43:47;;;;;;;3.60;3.08;;;;;;;;;;5052818;28;20102;-41
2021/09/29 10:49:15;;;;;;;6.10;3.03;;;;;;;;;;5052743;28;20372;-41
2021/09/29 11:27:39;;;;;;;6.07;3.10;;;;;;;;;;5055950;28;20029;-42
2021/09/29 11:30:18;;;;;;;5.43;3.28;;;;;;;;;;5056086;28;20559;-42
2021/09/29 11:33:05;;;;;;;5.25;3.45;;;;;;;;;;5054839;28;20029;-41
2021/09/29 11:35:53;;;;;;;4.68;3.25;;;;;;;;;;5056204;28;20091;-42
2021/09/29 12:09:08;;;;;;;4.40;3.25;;;;;;;;;;5055533;28;20033;-41
2021/09/29 12:11:54;;;;;;;5.07;3.00;;;;;;;;;;5055498;28;20049;-43
2021/09/29 12:14:20;;;;;;;7.38;3.63;;;;;;;;;;5055068;28;20373;-41
2021/09/29 12:16:48;;;;;;;3.72;2.47;;;;;;;;;;5055255;28;20036;-41
2021/09/29 12:19:34;;;;;;;5.30;3.50;;;;;;;;;;5055104;28;20067;-41
2021/09/29 12:22:03;;;;;;;5.90;3.85;;;;;;;;;;5055427;28;20087;-41
2021/09/29 12:24:44;;;;;;;4.05;2.97;;;;;;;;;;5053795;28;20029;-41
2021/09/29 12:27:28;;;;;;;3.42;2.78;;;;;;;;;;5053756;28;20078;-41
2021/09/29 12:29:54;;;;;;;;;;;;;;;;;;5055404;28;20525;-41
2021/09/29 12:35:08;;;;;;;4.68;2.95;;;;;;;;;;5054711;28;20036;-41
2021/09/29 12:37:34;;;;;;;4.43;3.10;;;;;;;;;;5054469;28;20071;-41
2021/09/29 12:40:00;;;;;;;5.82;3.30;;;;;;;;;;5054663;28;20451;-41
2021/09/29 12:42:33;;;;;;;4.22;2.28;;;;;;;;;;5054558;28;20048;-42
2021/09/29 12:44:59;;;;;;;4.32;3.10;;;;;;;;;;5053763;28;20124;-41
2021/09/29 12:47:37;;;;;;;4.72;3.47;;;;;;;;;;5054586;28;20531;-41
2021/09/29 12:50:15;;;;;;;4.43;3.25;;;;;;;;;;5054682;28;20025;-41
2021/09/29 12:55:37;;;;;;;6.10;3.97;;;;;;;;;;5053207;28;20041;-41
2021/09/29 12:58:03;;;;;;;4.70;3.47;;;;;;;;;;5054431;28;20040;-41
2021/09/29 13:00:28;;;;;;;4.55;3.10;;;;;;;;;;5054652;28;20021;-41
2021/09/29 13:02:54;;;;;;;5.28;3.05;;;;;;;;;;5054225;28;20025;-42
2021/09/29 13:05:20;;;;;;;3.70;2.50;;;;;;;;;;5054246;28;20021;-42
2021/09/29 13:07:46;;;;;;;4.78;3.40;;;;;;;;;;5053016;28;20044;-41
2021/09/29 13:10:12;;;;;;;5.45;3.60;;;;;;;;;;5053972;28;20044;-42
2021/09/29 13:12:38;;;;;;;8.95;2.90;;;;;;;;;;5054078;28;20025;-41
2021/09/29 13:15:04;;;;;;;5.85;2.83;;;;;;;;;;5054079;28;20037;-42
2021/09/29 13:17:29;;;;;;;4.25;3.20;;;;;;;;;;5069277;28;20040;-42
2021/09/29 13:20:01;;;;;;;3.17;2.50;;;;;;;;;;5054114;28;20025;-42
2021/09/29 13:22:27;;;;;;;5.72;3.50;;;;;;;;;;5053750;28;20021;-41
2021/09/29 13:25:14;;;;;;;4.63;3.10;;;;;;;;;;5053920;28;20017;-41
2021/09/29 13:38:55;;;;;;;3.67;2.47;;;;;;;;;;5069175;28;20036;-41
2021/09/29 13:41:20;;;;;;;4.70;3.00;;;;;;;;;;5053546;28;20021;-41
2021/09/29 13:43:46;;;;;;;4.88;3.30;;;;;;;;;;5053550;28;20036;-42
2021/09/29 13:46:11;;;;;;;5.45;3.17;;;;;;;;;;5053835;28;20104;-41
2021/09/29 13:48:37;;;;;;;4.07;3.10;;;;;;;;;;5052749;28;20029;-41
2021/09/29 13:51:03;;;;;;;8.90;2.65;;;;;;;;;;5053382;28;20150;-41
2021/09/29 13:53:29;;;;;;;4.80;3.05;;;;;;;;;;5053476;28;20090;-41
2021/09/29 13:55:57;;;;;;;4.70;2.90;;;;;;;;;;5053321;28;20028;-41
2021/09/29 13:58:43;;;;;;;4.85;2.72;;;;;;;;;;5053467;28;20108;-41
2021/09/29 14:03:52;;;;;;;4.43;3.58;;;;;;;;;;5053173;28;20487;-42
2021/09/29 14:30:49;;;;;;;4.03;2.70;;;;;;;;;;5052688;28;20036;-41
2021/09/29 14:33:23;;;;;;;6.15;3.40;;;;;;;;;;5052966;28;20109;-41
2021/09/29 14:35:48;;;;;;;4.97;2.45;;;;;;;;;;5052944;28;20036;-41
2021/09/29 14:38:14;;;;;;;3.92;2.63;;;;;;;;;;5052479;28;20515;-41
2021/09/29 14:40:40;;;;;;;4.18;2.55;;;;;;;;;;5052391;28;20032;-42
2021/09/29 14:43:05;;;;;;;3.72;3.10;;;;;;;;;;5052789;28;20059;-41
2021/09/29 14:45:31;;;;;;;4.40;2.75;;;;;;;;;;5052599;28;20021;-41
2021/09/29 14:47:57;;;;;;;6.53;2.92;;;;;;;;;;5052452;28;20028;-41
2021/09/29 14:50:28;;;;;;;3.92;2.55;;;;;;;;;;5052378;28;20078;-41
2021/09/29 14:52:56;;;;;;;4.40;3.22;;;;;;;;;;5052236;28;20064;-42
2021/09/29 14:55:23;;;;;;;5.72;2.67;;;;;;;;;;5052125;28;20029;-42
2021/09/29 14:57:48;;;;;;;3.90;2.75;;;;;;;;;;5052401;28;20025;-42
2021/09/29 15:00:14;;;;;;;4.88;2.95;;;;;;;;;;5052217;28;20021;-42
2021/09/29 15:02:39;;;;;;;5.18;2.80;;;;;;;;;;5052401;28;20017;-41
2021/09/29 15:05:05;;;;;;;4.38;2.65;;;;;;;;;;5052195;28;20410;-41
2021/09/29 15:07:30;;;;;;;3.28;2.60;;;;;;;;;;5052255;28;20071;-41
2021/09/29 15:09:56;;;;;;;3.83;2.60;;;;;;;;;;5051954;28;20483;-41
2021/09/29 15:12:21;;;;;;;3.83;2.85;;;;;;;;;;5047553;28;20029;-41
2021/09/29 15:14:54;;;;;;;3.75;2.53;;;;;;;;;;5031520;28;20139;-41
2021/09/29 15:17:36;;;;;;;4.72;3.25;;;;;;;;;;5031945;28;20025;-41
2021/09/29 15:20:12;;;;;;;4.72;2.47;;;;;;;;;;5031097;28;21392;-42
2021/09/29 15:48:48;;;;;;;5.18;2.20;;;;;;;;;;5031645;28;20026;-46
2021/09/29 15:51:20;;;;;;;3.80;2.83;;;;;;;;;;5028187;28;20797;-46
2021/09/29 16:01:40;;;;;;;4.72;3.53;;;;;;;;;;5031688;28;20018;-46
2021/09/29 16:06:47;;;;;;;3.70;2.22;;;;;;;;;;5030507;28;20037;-37
2021/09/29 16:15:44;;;;;;;3.83;3.28;;;;;;;;;;4998839;28;20088;-49
2021/09/29 16:31:53;;;;;;;4.18;2.55;;;;;;;;;;5032812;28;20080;-44
2021/09/29 16:34:20;;;;;;;7.35;3.92;;;;;;;;;;5033769;28;20068;-43
2021/09/29 16:36:46;;;;;;;19.38;3.17;;;;;;;;;;5032077;28;20025;-44
2021/09/29 16:39:12;;;;;;;6.15;2.85;;;;;;;;;;5033669;28;20041;-44
2021/09/29 16:41:39;;;;;;;7.53;3.30;;;;;;;;;;5033497;28;20480;-43
2021/09/29 16:44:05;;;;;;;4.03;2.88;;;;;;;;;;5033595;28;20064;-43
2021/09/29 16:46:33;;;;;;;4.53;3.28;;;;;;;;;;5033502;28;20017;-43
2021/09/29 16:48:59;;;;;;;5.38;2.60;;;;;;;;;;5033627;28;20064;-44
2021/09/29 16:51:29;;;;;;;5.38;3.63;;;;;;;;;;5033364;28;20045;-43
2021/09/29 16:53:59;;;;;;;12.32;4.13;;;;;;;;;;5031971;28;20468;-43
2021/09/29 16:56:24;;;;;;;4.90;3.15;;;;;;;;;;5033310;28;20021;-43
2021/09/29 16:59:06;;;;;;;6.22;3.03;;;;;;;;;;5033363;28;20447;-43
2021/09/29 17:01:32;;;;;;;3.17;2.20;;;;;;;;;;5033559;28;20083;-43
2021/09/29 17:03:58;;;;;;;4.25;2.60;;;;;;;;;;5033162;28;20026;-43
2021/09/29 17:06:24;;;;;;;3.90;2.80;;;;;;;;;;5033317;28;20184;-43
2021/09/29 17:08:50;;;;;;;3.60;2.83;;;;;;;;;;5032926;28;20026;-47
2021/09/29 17:11:16;;;;;;;3.50;2.92;;;;;;;;;;5032956;28;20107;-43
2021/09/29 17:13:43;;;;;;;4.60;2.88;;;;;;;;;;5033168;28;20021;-46
2021/09/29 17:16:14;;;;;;;4.78;4.15;;;;;;;;;;5032942;28;20041;-43
2021/09/29 17:18:42;;;;;;;5.25;3.00;;;;;;;;;;5032803;28;20388;-43
2021/09/29 17:21:08;;;;;;;7.10;3.33;;;;;;;;;;5032899;28;20018;-43
2021/09/29 17:23:34;;;;;;;5.03;3.22;;;;;;;;;;5031677;28;20136;-43
2021/09/29 17:26:01;;;;;;;4.03;2.78;;;;;;;;;;5032792;28;20029;-43
2021/09/29 17:28:26;;;;;;;3.35;2.55;;;;;;;;;;5032637;28;20033;-43
2021/09/29 17:30:58;;;;;;;4.57;2.75;;;;;;;;;;5032662;28;20043;-44
2021/09/29 17:33:27;;;;;;;16.27;3.95;;;;;;;;;;5032431;28;20021;-43
2021/09/29 17:38:58;;;;;;;4.05;3.08;;;;;;;;;;5032525;28;20044;-43
2021/09/29 17:52:25;;;;;;;3.67;2.67;;;;;;;;;;5032340;28;20112;-43
2021/09/29 17:54:51;;;;;;;10.82;3.80;;;;;;;;;;5032430;28;20041;-43
2021/09/29 17:57:16;;;;;;;4.43;3.25;;;;;;;;;;5032224;28;20035;-43
2021/09/29 17:59:45;;;;;;;4.68;2.83;;;;;;;;;;5032129;28;20452;-43
2021/09/29 18:02:17;;;;;;;5.55;3.00;;;;;;;;;;5032003;28;20075;-43
2021/09/29 18:04:45;;;;;;;5.95;2.90;;;;;;;;;;5032358;28;20387;-43
2021/09/29 18:07:24;;;;;;;4.05;3.20;;;;;;;;;;5031993;28;20100;-43
2021/09/29 18:09:51;;;;;;;4.95;2.58;;;;;;;;;;5031785;28;20053;-43
2021/09/29 18:12:17;;;;;;;7.95;3.50;;;;;;;;;;5032096;28;20435;-43
2021/09/29 18:14:42;;;;;;;5.20;3.70;;;;;;;;;;5030354;28;20093;-43
2021/09/29 18:17:08;;;;;;;7.65;2.70;;;;;;;;;;5032100;28;20056;-43
2021/09/29 18:19:35;;;;;;;4.70;2.97;;;;;;;;;;5030535;28;20028;-43
2021/09/29 18:22:02;;;;;;;7.20;3.08;;;;;;;;;;5031962;28;20431;-44
2021/09/29 18:24:27;;;;;;;4.07;3.65;;;;;;;;;;5031623;28;20026;-43
2021/09/29 18:26:53;;;;;;;5.03;3.47;;;;;;;;;;5031829;28;20025;-44
2021/09/29 18:29:22;;;;;;;6.75;3.40;;;;;;;;;;5031865;28;20052;-43
2021/09/29 18:31:49;;;;;;;5.50;3.88;;;;;;;;;;5031842;28;20033;-44
2021/09/29 18:34:15;;;;;;;3.20;2.47;;;;;;;;;;5031311;28;20042;-47
2021/09/29 18:36:43;;;;;;;3.75;2.67;;;;;;;;;;5031324;28;20487;-43
2021/09/29 18:39:09;;;;;;;4.75;3.03;;;;;;;;;;5031419;28;20076;-43
2021/09/29 18:41:36;;;;;;;5.18;3.28;;;;;;;;;;5031328;28;20052;-43
2021/09/29 18:44:07;;;;;;;3.60;2.53;;;;;;;;;;5031275;28;20058;-43
2021/09/29 18:46:34;;;;;;;4.72;3.05;;;;;;;;;;5031271;28;20233;-43
2021/09/29 18:49:02;;;;;;;4.72;3.10;;;;;;;;;;5030071;28;20017;-43
2021/09/29 18:51:29;;;;;;;6.75;3.20;;;;;;;;;;5013526;28;20036;-43
2021/09/29 19:09:39;;;;;;;9.98;3.38;;;;;;;;;;5031084;28;20053;-43